Time;durP1;ratioP1;P1;durP2;ratioP2;P2;SDS_P1;SDS_P2;PMS_P1;PMS_P2;Temp;Humidity;BMP_temperature;BMP_pressure;BME280_temperature;BME280_humidity;BME280_pressure;Samples;Min_cycle;Max_cycle;Signal;HPM_P1;HPM_P2
2022/04/25 00:01:39;;;;;;;60.83;31.75;;;;;;;18.00;52.30;100254.38;5087036;28;20503;-61
2022/04/25 00:04:06;;;;;;;53.60;27.23;;;;;;;18.00;52.42;100250.91;5086601;28;20402;-62
2022/04/25 00:08:05;;;;;;;15.98;11.80;;;;;;;17.80;52.93;100249.28;5118367;27;20397;-62
2022/04/25 00:12:34;;;;;;;5.90;4.32;;;;;;;17.88;52.22;100251.69;5118335;27;20394;-61
2022/04/25 00:15:01;;;;;;;6.07;3.35;;;;;;;17.83;52.42;100245.34;5087454;28;20541;-62
2022/04/25 00:17:28;;;;;;;6.03;3.38;;;;;;;17.75;52.58;100239.28;5086967;28;20410;-61
2022/04/25 00:19:55;;;;;;;6.50;3.00;;;;;;;17.69;52.61;100244.72;5087161;28;20414;-61
2022/04/25 00:22:22;;;;;;;5.43;3.13;;;;;;;17.65;52.66;100244.38;5087096;28;20414;-62
2022/04/25 00:24:50;;;;;;;5.72;2.90;;;;;;;17.60;52.81;100252.28;5087127;28;20442;-62
2022/04/25 00:27:17;;;;;;;6.22;3.13;;;;;;;17.66;52.68;100247.84;5086735;28;20414;-61
2022/04/25 00:29:46;;;;;;;3.63;2.85;;;;;;;17.67;52.52;100252.19;5086830;28;20418;-61
2022/04/25 00:32:12;;;;;;;4.47;2.70;;;;;;;17.69;52.52;100253.56;5086846;28;20426;-62
2022/04/25 00:34:39;;;;;;;3.80;2.73;;;;;;;17.66;52.76;100245.97;5086883;28;20424;-61
2022/04/25 00:37:06;;;;;;;5.20;3.00;;;;;;;17.67;52.59;100260.22;5086561;28;20503;-61
2022/04/25 00:39:34;;;;;;;3.67;2.97;;;;;;;17.62;52.81;100247.50;5086943;28;20413;-62
2022/04/25 00:42:01;;;;;;;4.03;3.30;;;;;;;17.60;52.94;100249.59;5086498;28;20445;-62
2022/04/25 00:44:27;;;;;;;5.40;3.27;;;;;;;17.48;53.36;100241.50;5086717;28;20857;-62
2022/04/25 00:46:59;;;;;;;5.67;3.47;;;;;;;17.41;53.51;100234.59;5086336;28;20814;-61
2022/04/25 00:49:26;;;;;;;13.83;4.80;;;;;;;17.44;53.41;100240.31;5086601;28;20410;-62
2022/04/25 00:51:53;;;;;;;7.80;4.00;;;;;;;17.47;53.42;100242.56;5086496;28;20434;-61
2022/04/25 00:54:21;;;;;;;6.72;3.22;;;;;;;17.37;53.66;100255.66;5086517;28;20495;-61
2022/04/25 00:56:49;;;;;;;4.47;3.05;;;;;;;17.30;53.70;100249.56;5086678;28;20449;-61
2022/04/25 00:59:17;;;;;;;4.18;2.83;;;;;;;17.32;53.68;100260.88;5086469;28;20417;-62
2022/04/25 01:01:44;;;;;;;5.63;2.97;;;;;;;17.33;53.62;100267.88;5086113;28;20413;-61
2022/04/25 01:04:13;;;;;;;4.55;3.00;;;;;;;17.37;53.49;100269.88;5086328;28;20454;-63
2022/04/25 01:06:40;;;;;;;3.87;2.90;;;;;;;17.41;53.49;100262.19;5086256;28;20406;-62
2022/04/25 01:09:07;;;;;;;3.83;3.00;;;;;;;17.40;53.54;100252.53;5086274;28;20413;-61
2022/04/25 01:11:34;;;;;;;3.55;2.65;;;;;;;17.31;53.74;100246.69;5086052;28;20517;-61
2022/04/25 01:14:12;;;;;;;4.28;2.80;;;;;;;17.35;53.83;100236.31;5086231;28;20410;-61
2022/04/25 01:16:39;;;;;;;6.07;3.22;;;;;;;17.34;53.65;100227.47;5085802;28;20780;-61
2022/04/25 01:19:06;;;;;;;11.32;3.45;;;;;;;17.36;53.75;100219.22;5085696;28;20418;-62
2022/04/25 01:21:39;;;;;;;5.75;2.95;;;;;;;17.34;53.78;100222.13;5085738;28;20932;-63
2022/04/25 01:27:18;;;;;;;4.05;3.00;;;;;;;17.46;53.60;100226.69;5030104;28;20466;-61
2022/04/25 01:29:47;;;;;;;5.05;2.97;;;;;;;17.44;53.48;100215.41;5065587;28;20414;-62
2022/04/25 01:36:38;;;;;;;6.68;3.15;;;;;;;17.22;54.17;100212.41;5118303;27;20409;-61
2022/04/25 01:39:05;;;;;;;5.60;3.08;;;;;;;17.33;53.70;100211.63;5087334;28;20518;-61
2022/04/25 01:41:32;;;;;;;3.60;2.70;;;;;;;17.34;53.72;100219.44;5086942;28;20402;-61
2022/04/25 01:43:59;;;;;;;4.30;3.13;;;;;;;17.35;53.79;100214.91;5086884;28;20406;-62
2022/04/25 01:46:26;;;;;;;4.85;3.25;;;;;;;17.33;53.82;100220.47;5087166;28;20414;-62
2022/04/25 01:48:53;;;;;;;6.60;2.85;;;;;;;17.33;53.70;100223.16;5086790;28;20421;-61
2022/04/25 01:51:21;;;;;;;4.90;3.10;;;;;;;17.33;53.86;100227.69;5086744;28;20438;-62
2022/04/25 01:54:05;;;;;;;4.70;3.30;;;;;;;17.31;53.72;100227.91;5118073;27;20405;-62
2022/04/25 01:58:26;;;;;;;4.32;3.40;;;;;;;17.19;54.31;100224.38;5118304;27;20485;-61
2022/04/25 02:01:43;;;;;;;5.53;3.35;;;;;;;17.18;53.94;100222.75;5118235;27;20406;-61
2022/04/25 02:04:10;;;;;;;4.78;3.30;;;;;;;17.13;54.23;100209.22;5086932;28;20414;-61
2022/04/25 02:06:37;;;;;;;5.37;3.40;;;;;;;17.12;54.27;100200.34;5087242;28;20531;-62
2022/04/25 02:09:04;;;;;;;4.20;3.13;;;;;;;17.13;54.11;100198.50;5086817;28;20402;-61
2022/04/25 02:11:31;;;;;;;6.68;3.40;;;;;;;17.11;54.12;100187.19;5086794;28;20417;-62
2022/04/25 02:13:59;;;;;;;4.75;3.28;;;;;;;17.13;54.04;100193.16;5086779;28;20462;-61
2022/04/25 02:16:26;;;;;;;5.95;4.10;;;;;;;17.04;54.08;100198.00;5086985;28;20410;-61
2022/04/25 02:18:55;;;;;;;4.70;3.63;;;;;;;16.99;54.41;100195.16;5087014;28;20425;-61
2022/04/25 02:21:23;;;;;;;5.05;3.10;;;;;;;16.93;54.51;100201.44;5086525;28;20491;-61
2022/04/25 02:23:50;;;;;;;4.25;3.00;;;;;;;16.95;54.35;100204.69;5086938;28;20406;-61
2022/04/25 02:26:17;;;;;;;5.07;3.20;;;;;;;16.87;54.61;100199.63;5086969;28;20438;-62
2022/04/25 02:28:45;;;;;;;4.75;3.40;;;;;;;16.84;54.77;100200.91;5086489;28;20879;-62
2022/04/25 02:31:12;;;;;;;4.50;3.00;;;;;;;16.83;54.78;100204.63;5086399;28;20450;-62
2022/04/25 02:33:41;;;;;;;4.40;3.00;;;;;;;16.84;54.82;100211.63;5086364;28;20410;-62
2022/04/25 02:36:10;;;;;;;3.70;3.20;;;;;;;16.87;54.63;100205.00;5086324;28;20410;-62
2022/04/25 02:38:38;;;;;;;4.97;3.28;;;;;;;16.78;54.81;100213.31;5086585;28;20410;-62
2022/04/25 02:41:09;;;;;;;5.57;3.85;;;;;;;16.80;55.00;100215.75;5086125;28;20430;-62
2022/04/25 02:43:39;;;;;;;7.38;3.30;;;;;;;16.79;54.87;100214.09;5086178;28;20425;-62
2022/04/25 02:46:08;;;;;;;4.88;3.08;;;;;;;16.76;54.67;100210.03;5086506;28;20415;-61
2022/04/25 02:48:36;;;;;;;6.47;3.00;;;;;;;16.71;54.93;100217.06;5086618;28;20436;-61
2022/04/25 02:51:04;;;;;;;3.67;3.10;;;;;;;16.70;54.75;100215.44;5086134;28;20450;-61
2022/04/25 02:55:59;;;;;;;5.68;3.47;;;;;;;16.60;55.10;100223.97;5118308;27;20405;-62
2022/04/25 02:58:27;;;;;;;4.53;3.08;;;;;;;16.59;55.28;100215.13;5087302;28;20414;-61
2022/04/25 03:00:55;;;;;;;7.88;6.60;;;;;;;16.60;55.19;100224.81;5086900;28;20463;-62
2022/04/25 03:03:24;;;;;;;8.05;4.35;;;;;;;16.62;55.07;100228.09;5087143;28;20414;-62
2022/04/25 03:05:52;;;;;;;6.35;4.30;;;;;;;16.59;55.02;100222.34;5087136;28;20414;-62
2022/04/25 03:08:21;;;;;;;7.65;4.50;;;;;;;16.62;55.21;100219.25;5086997;28;20424;-61
2022/04/25 03:11:08;;;;;;;12.90;9.90;;;;;;;16.55;55.18;100211.28;5118302;27;20919;-61
2022/04/25 03:15:53;;;;;;;5.40;3.80;;;;;;;16.19;55.99;100218.19;5118350;27;20406;-62
2022/04/25 03:18:22;;;;;;;4.43;3.60;;;;;;;16.22;56.23;100212.44;5087174;28;20825;-62
2022/04/25 03:20:51;;;;;;;5.90;3.60;;;;;;;16.23;56.31;100214.03;5086906;28;20437;-62
2022/04/25 03:23:18;;;;;;;6.50;4.00;;;;;;;16.21;56.32;100216.13;5086783;28;20935;-62
2022/04/25 03:25:46;;;;;;;7.82;3.90;;;;;;;16.21;56.38;100210.78;5086724;28;20410;-62
2022/04/25 03:28:13;;;;;;;5.10;3.72;;;;;;;16.13;56.30;100223.59;5086764;28;20410;-62
2022/04/25 03:30:41;;;;;;;5.93;4.15;;;;;;;16.24;56.16;100226.38;5086757;28;20422;-62
2022/04/25 03:33:39;;;;;;;4.75;3.80;;;;;;;16.11;56.52;100223.00;5118171;27;20429;-61
2022/04/25 03:36:06;;;;;;;5.97;4.25;;;;;;;16.18;56.36;100223.75;5087243;28;20438;-62
2022/04/25 03:38:34;;;;;;;5.97;4.20;;;;;;;16.24;56.27;100225.53;5087247;28;20414;-61
2022/04/25 03:41:01;;;;;;;6.45;3.97;;;;;;;16.03;56.66;100235.59;5086876;28;20873;-62
2022/04/25 03:43:28;;;;;;;4.73;3.83;;;;;;;16.05;56.79;100228.19;5086738;28;20413;-61
2022/04/25 03:45:56;;;;;;;5.53;4.10;;;;;;;16.18;56.61;100235.28;5086743;28;20980;-62
2022/04/25 03:48:23;;;;;;;5.50;3.80;;;;;;;16.32;56.38;100229.81;5086680;28;20406;-61
2022/04/25 03:50:52;;;;;;;7.00;4.03;;;;;;;16.41;55.96;100233.84;5086622;28;20425;-61
2022/04/25 03:53:19;;;;;;;5.60;3.88;;;;;;;16.38;56.06;100237.78;5086859;28;20514;-63
2022/04/25 03:58:30;;;;;;;6.72;4.03;;;;;;;16.55;55.87;100239.91;5086601;28;20453;-61
2022/04/25 04:00:58;;;;;;;5.57;3.97;;;;;;;16.63;55.54;100245.75;5070824;28;20420;-62
2022/04/25 04:03:25;;;;;;;7.28;4.13;;;;;;;16.71;55.26;100250.03;5046173;28;20796;-62
2022/04/25 04:05:54;;;;;;;7.53;4.82;;;;;;;16.84;55.04;100243.75;5046617;28;20445;-61
2022/04/25 04:08:21;;;;;;;7.18;4.90;;;;;;;16.87;55.16;100245.97;5046252;28;20465;-63
2022/04/25 04:10:48;;;;;;;10.50;5.60;;;;;;;16.82;55.25;100243.94;5046160;28;20441;-62
2022/04/25 04:13:15;;;;;;;6.05;5.22;;;;;;;16.56;56.13;100245.00;5045927;28;20434;-62
2022/04/25 04:15:42;;;;;;;5.43;4.80;;;;;;;16.59;56.13;100251.78;5046009;28;20915;-61
2022/04/25 04:18:10;;;;;;;6.05;4.72;;;;;;;16.76;55.55;100247.50;5045921;28;20504;-62
2022/04/25 04:20:37;;;;;;;7.97;4.68;;;;;;;16.82;55.44;100243.13;5045897;28;20446;-61
2022/04/25 04:23:06;;;;;;;7.70;4.57;;;;;;;16.70;55.96;100253.72;5046229;28;20435;-61
2022/04/25 04:25:34;;;;;;;10.00;5.32;;;;;;;16.89;55.48;100245.72;5045838;28;20848;-61
2022/04/25 04:28:02;;;;;;;6.77;4.97;;;;;;;17.00;55.18;100259.22;5046092;28;20417;-61
2022/04/25 04:31:33;;;;;;;11.20;6.00;;;;;;;17.26;54.76;100254.56;5118353;27;20402;-61
2022/04/25 04:34:00;;;;;;;7.95;4.57;;;;;;;17.22;54.79;100263.28;5087248;28;20436;-61
2022/04/25 04:36:27;;;;;;;7.82;4.82;;;;;;;17.36;54.46;100254.03;5087249;28;20410;-62
2022/04/25 04:38:54;;;;;;;6.30;4.50;;;;;;;17.46;54.46;100250.81;5086944;28;20467;-61
2022/04/25 04:41:22;;;;;;;5.23;4.50;;;;;;;17.74;53.61;100261.75;5086847;28;20422;-63
2022/04/25 04:43:49;;;;;;;6.85;4.78;;;;;;;17.68;53.95;100260.00;5087172;28;20410;-61
2022/04/25 04:46:16;;;;;;;7.70;4.25;;;;;;;18.32;52.21;100259.44;5087083;28;20444;-61
2022/04/25 04:48:45;;;;;;;5.35;3.97;;;;;;;18.51;51.90;100266.34;5086623;28;20449;-61
2022/04/25 04:51:12;;;;;;;5.53;3.92;;;;;;;18.27;52.24;100264.69;5086836;28;20480;-61
2022/04/25 04:53:39;;;;;;;7.20;4.40;;;;;;;18.23;52.28;100268.91;5086525;28;20416;-62
2022/04/25 04:56:06;;;;;;;5.10;4.07;;;;;;;18.25;52.19;100262.25;5086842;28;20442;-63
2022/04/25 04:58:33;;;;;;;4.88;3.85;;;;;;;18.27;52.05;100265.50;5086866;28;20411;-61
2022/04/25 05:01:01;;;;;;;4.05;3.47;;;;;;;18.31;52.00;100276.59;5086463;28;20495;-62
2022/04/25 05:03:28;;;;;;;4.97;3.85;;;;;;;18.16;52.18;100274.38;5086372;28;20444;-62
2022/04/25 05:05:57;;;;;;;5.47;3.88;;;;;;;18.18;52.31;100263.41;5086687;28;20410;-62
2022/04/25 05:08:24;;;;;;;7.63;4.25;;;;;;;18.36;51.51;100274.03;5086285;28;20899;-61
2022/04/25 05:10:53;;;;;;;6.32;4.00;;;;;;;19.08;49.68;100272.97;5086177;28;20430;-61
2022/04/25 05:13:20;;;;;;;5.80;4.00;;;;;;;20.17;47.10;100253.22;5086203;28;20493;-62
2022/04/25 05:15:48;;;;;;;6.07;4.40;;;;;;;21.04;45.02;100258.22;5086140;28;20500;-62
2022/04/25 05:18:15;;;;;;;5.82;3.90;;;;;;;20.99;44.32;100261.66;5086068;28;20438;-62
2022/04/25 05:20:42;;;;;;;5.95;4.10;;;;;;;21.16;43.61;100259.72;5086343;28;20450;-62
2022/04/25 05:23:11;;;;;;;6.53;4.30;;;;;;;21.09;44.11;100269.06;5086001;28;20858;-62
2022/04/25 05:25:38;;;;;;;7.20;4.20;;;;;;;20.85;44.56;100277.41;5086263;28;20413;-62
2022/04/25 05:28:06;;;;;;;8.18;4.70;;;;;;;20.89;44.80;100275.03;5086192;28;20511;-62
2022/04/25 05:30:34;;;;;;;8.30;4.35;;;;;;;22.45;41.61;100264.47;5086055;28;20434;-62
2022/04/25 05:33:02;;;;;;;5.53;4.15;;;;;;;23.29;38.63;100260.03;5085775;28;20410;-62
2022/04/25 05:35:31;;;;;;;5.78;3.65;;;;;;;24.24;36.75;100256.13;5085766;28;20824;-62
2022/04/25 05:37:58;;;;;;;5.35;3.40;;;;;;;23.21;38.73;100271.41;5085682;28;20417;-62
2022/04/25 05:40:27;;;;;;;5.25;3.60;;;;;;;23.38;39.27;100276.56;5085903;28;20476;-62
2022/04/25 05:42:56;;;;;;;5.95;3.45;;;;;;;23.74;38.95;100273.16;5072212;28;20402;-62
2022/04/25 05:45:25;;;;;;;6.38;3.20;;;;;;;24.60;37.07;100264.22;5072151;28;20500;-62
2022/04/25 05:47:54;;;;;;;4.80;2.73;;;;;;;24.94;35.41;100271.72;5072202;28;20419;-63
2022/04/25 05:53:06;;;;;;;9.93;3.20;;;;;;;24.10;36.15;100268.59;5072053;28;20452;-62
2022/04/25 05:55:34;;;;;;;6.95;3.38;;;;;;;24.03;38.37;100270.75;5072253;28;20411;-63
2022/04/25 05:58:02;;;;;;;6.80;2.97;;;;;;;24.31;36.86;100269.41;5071844;28;20419;-62
2022/04/25 06:00:30;;;;;;;6.93;3.28;;;;;;;24.79;36.50;100280.72;5071855;28;20423;-62
2022/04/25 06:02:58;;;;;;;7.50;2.85;;;;;;;24.83;33.80;100277.44;5071755;28;20418;-62
2022/04/25 06:05:26;;;;;;;5.47;2.22;;;;;;;24.56;33.51;100278.59;5071765;28;20415;-62
2022/04/25 06:07:53;;;;;;;6.10;2.35;;;;;;;24.59;33.05;100280.75;5071720;28;20443;-63
2022/04/25 06:10:22;;;;;;;5.22;2.33;;;;;;;24.40;34.20;100280.50;5071589;28;20433;-62
2022/04/25 06:12:52;;;;;;;9.82;2.67;;;;;;;23.33;36.86;100295.50;5071905;28;20411;-63
2022/04/25 06:15:24;;;;;;;10.07;2.97;;;;;;;23.93;35.22;100285.13;5072159;28;20417;-62
2022/04/25 06:17:51;;;;;;;6.30;2.42;;;;;;;24.11;34.70;100285.66;5071911;28;21263;-62
2022/04/25 06:20:19;;;;;;;10.85;3.13;;;;;;;25.39;32.78;100293.53;5071424;28;20458;-62
2022/04/25 06:22:52;;;;;;;9.43;2.83;;;;;;;26.13;30.60;100291.69;5071418;28;20425;-62
2022/04/25 06:25:19;;;;;;;7.72;2.63;;;;;;;27.54;26.96;100290.72;5071368;28;20872;-63
2022/04/25 06:27:46;;;;;;;5.50;2.05;;;;;;;28.22;25.19;100280.44;5071277;28;20402;-63
2022/04/25 06:30:15;;;;;;;9.80;2.00;;;;;;;29.68;22.46;100278.91;5071572;28;20523;-62
2022/04/25 06:32:42;;;;;;;10.20;1.80;;;;;;;30.31;20.97;100271.63;5071513;28;20434;-62
2022/04/25 06:35:10;;;;;;;10.23;2.00;;;;;;;28.88;22.20;100272.16;5071130;28;20864;-62
2022/04/25 06:37:37;;;;;;;8.07;1.90;;;;;;;27.93;23.11;100280.63;5071138;28;20464;-63
2022/04/25 06:40:05;;;;;;;8.40;1.90;;;;;;;26.93;23.88;100286.06;5071307;28;20417;-62
2022/04/25 06:42:32;;;;;;;7.28;1.70;;;;;;;26.91;24.21;100288.25;5071327;28;20417;-64
2022/04/25 06:44:59;;;;;;;7.88;2.00;;;;;;;26.19;25.01;100294.38;5070935;28;20924;-63
2022/04/25 06:47:27;;;;;;;5.97;2.00;;;;;;;26.03;25.25;100289.06;5071230;28;20442;-63
2022/04/25 06:49:55;;;;;;;6.75;1.70;;;;;;;25.68;25.55;100290.91;5070846;28;20407;-62
2022/04/25 06:52:22;;;;;;;8.18;1.88;;;;;;;25.61;25.56;100292.34;5070652;28;20422;-62
2022/04/25 06:54:49;;;;;;;6.70;1.90;;;;;;;25.58;25.51;100287.47;5070294;28;20435;-63
2022/04/25 06:57:16;;;;;;;9.25;1.92;;;;;;;26.01;25.16;100282.31;5071008;28;20411;-63
2022/04/25 06:59:44;;;;;;;7.35;2.45;;;;;;;27.92;23.13;100288.00;5070616;28;20411;-63
2022/04/25 07:02:11;;;;;;;8.13;1.98;;;;;;;28.97;21.92;100281.25;5070902;28;20435;-63
2022/04/25 07:04:40;;;;;;;6.77;1.90;;;;;;;30.03;21.07;100292.03;5070635;28;20415;-63
2022/04/25 07:07:21;;;;;;;9.63;2.10;;;;;;;30.61;20.44;100279.34;5118165;27;20409;-63
2022/04/25 07:09:48;;;;;;;6.90;1.80;;;;;;;30.54;20.19;100282.56;5087134;28;20456;-61
2022/04/25 07:12:15;;;;;;;8.93;1.90;;;;;;;30.79;20.24;100280.22;5087110;28;20414;-62
2022/04/25 07:14:43;;;;;;;9.05;2.30;;;;;;;30.52;20.57;100286.72;5086735;28;20418;-62
2022/04/25 07:17:10;;;;;;;7.88;1.80;;;;;;;31.12;19.05;100283.41;5087090;28;20414;-61
2022/04/25 07:19:39;;;;;;;9.23;2.20;;;;;;;30.70;19.83;100277.44;5087086;28;20438;-61
2022/04/25 07:30:23;;;;;;;11.70;2.40;;;;;;;29.41;20.63;100289.94;5083636;28;20402;-61
2022/04/25 07:32:50;;;;;;;11.82;2.42;;;;;;;29.32;21.01;100303.50;5046351;28;20421;-62
2022/04/25 07:35:21;;;;;;;12.00;2.38;;;;;;;29.30;21.01;100309.25;5046561;28;20423;-61
2022/04/25 07:37:49;;;;;;;8.55;2.22;;;;;;;28.97;21.12;100303.91;5046249;28;20424;-61
2022/04/25 07:40:17;;;;;;;11.90;2.30;;;;;;;28.67;21.54;100312.69;5046433;28;20446;-61
2022/04/25 07:42:44;;;;;;;8.23;2.40;;;;;;;28.53;21.74;100305.28;5046070;28;20907;-65
2022/04/25 07:45:11;;;;;;;9.13;2.10;;;;;;;28.40;21.72;100306.84;5046249;28;20427;-61
2022/04/25 07:47:42;;;;;;;7.53;2.55;;;;;;;28.12;21.94;100311.38;5045961;28;20423;-61
2022/04/25 07:50:10;;;;;;;11.63;3.30;;;;;;;27.88;22.68;100318.84;5045921;28;20493;-61
2022/04/25 07:52:37;;;;;;;8.50;2.65;;;;;;;28.13;23.05;100320.41;5045984;28;20799;-61
2022/04/25 07:55:07;;;;;;;9.65;2.40;;;;;;;28.08;23.99;100315.81;5046414;28;20445;-61
2022/04/25 07:57:35;;;;;;;8.90;2.13;;;;;;;27.88;24.91;100318.84;5046200;28;20489;-61
2022/04/25 08:00:03;;;;;;;8.10;2.10;;;;;;;28.12;24.41;100305.13;5046046;28;20879;-61
2022/04/25 08:02:30;;;;;;;9.68;2.53;;;;;;;27.75;25.11;100313.03;5046061;28;20491;-61
2022/04/25 08:04:58;;;;;;;11.40;2.50;;;;;;;27.63;24.74;100309.94;5045543;28;20424;-61
2022/04/25 08:07:25;;;;;;;11.25;2.10;;;;;;;27.65;24.15;100305.00;5045611;28;20509;-61
2022/04/25 08:09:53;;;;;;;9.13;2.27;;;;;;;27.56;23.79;100304.06;5045622;28;20995;-61
2022/04/25 08:18:01;;;;;;;13.65;2.30;;;;;;;27.58;23.71;100299.91;5036958;28;20487;-61
2022/04/25 08:20:28;;;;;;;8.48;1.75;;;;;;;27.14;23.59;100290.16;5032441;28;20410;-61
2022/04/25 08:22:56;;;;;;;8.70;2.03;;;;;;;27.05;23.74;100298.13;5032561;28;20426;-61
2022/04/25 08:25:23;;;;;;;6.53;1.85;;;;;;;27.24;23.70;100298.19;5032323;28;20414;-61
2022/04/25 08:27:50;;;;;;;6.28;1.60;;;;;;;27.15;23.44;100296.38;5032337;28;20496;-61
2022/04/25 08:30:19;;;;;;;9.70;1.90;;;;;;;27.35;22.95;100298.91;5032256;28;20931;-60
2022/04/25 08:32:46;;;;;;;6.63;1.85;;;;;;;27.17;23.36;100297.75;5032308;28;20415;-61
2022/04/25 08:35:13;;;;;;;8.23;1.83;;;;;;;27.02;22.89;100301.44;5031976;28;20464;-62
2022/04/25 08:37:41;;;;;;;7.93;1.70;;;;;;;27.18;22.86;100298.53;5031870;28;20485;-63
2022/04/25 08:40:09;;;;;;;8.35;1.92;;;;;;;27.15;23.03;100289.03;5031726;28;20955;-63
2022/04/25 08:42:36;;;;;;;6.85;1.73;;;;;;;27.09;23.02;100299.16;5032107;28;20457;-62
2022/04/25 08:45:07;;;;;;;7.30;1.88;;;;;;;27.06;23.17;100304.38;5032054;28;20500;-63
2022/04/25 08:47:40;;;;;;;6.72;1.50;;;;;;;27.00;23.22;100309.06;5031871;28;20430;-63
2022/04/25 08:50:08;;;;;;;6.03;1.30;;;;;;;26.76;23.00;100310.97;5032004;28;20472;-60
2022/04/25 08:52:35;;;;;;;8.18;1.50;;;;;;;26.71;22.53;100317.28;5031551;28;20414;-61
2022/04/25 08:55:04;;;;;;;4.43;1.42;;;;;;;26.52;23.19;100317.16;5031801;28;20835;-60
2022/04/25 08:57:35;;;;;;;7.65;1.98;;;;;;;26.49;23.63;100315.84;5031778;28;20422;-61
2022/04/25 09:00:05;;;;;;;9.05;1.60;;;;;;;26.68;23.70;100309.69;5031510;28;20422;-63
2022/04/25 09:02:33;;;;;;;6.87;1.50;;;;;;;26.97;23.12;100300.69;5031242;28;20907;-61
2022/04/25 09:05:01;;;;;;;5.88;1.60;;;;;;;27.15;22.89;100308.06;5031399;28;20489;-60
2022/04/25 09:07:29;;;;;;;7.80;1.60;;;;;;;26.81;22.36;100300.88;5031191;28;20441;-61
2022/04/25 09:09:56;;;;;;;5.97;1.17;;;;;;;26.88;22.61;100306.78;5031307;28;20411;-60
2022/04/25 09:12:23;;;;;;;7.15;1.35;;;;;;;27.06;22.11;100299.78;5031511;28;20430;-60
2022/04/25 09:14:51;;;;;;;6.40;1.40;;;;;;;26.90;21.90;100301.03;5031215;28;20432;-61
2022/04/25 09:17:18;;;;;;;8.93;1.55;;;;;;;27.00;22.12;100295.47;5031509;28;20453;-61
2022/04/25 09:19:45;;;;;;;5.47;1.48;;;;;;;26.82;22.23;100294.31;5031065;28;20873;-60
2022/04/25 09:22:13;;;;;;;6.30;1.58;;;;;;;26.55;22.31;100297.56;5031014;28;20500;-61
2022/04/25 09:24:45;;;;;;;7.93;2.20;;;;;;;26.48;22.63;100299.81;5031281;28;20446;-61
2022/04/25 09:27:18;;;;;;;4.50;1.23;;;;;;;26.55;22.11;100294.84;5031097;28;20434;-60
2022/04/25 09:29:48;;;;;;;5.78;1.45;;;;;;;26.67;21.92;100300.75;5029903;28;20430;-61
2022/04/25 09:32:17;;;;;;;5.80;1.33;;;;;;;26.57;21.49;100297.28;5031179;28;20427;-61
2022/04/25 09:35:03;;;;;;;7.75;1.60;;;;;;;26.73;21.19;100304.22;5030779;28;20832;-60
2022/04/25 09:37:45;;;;;;;4.97;1.48;;;;;;;26.81;21.94;100310.94;5030671;28;20422;-60
2022/04/25 09:40:16;;;;;;;6.97;1.23;;;;;;;26.69;22.05;100317.56;5030731;28;20908;-62
2022/04/25 09:42:43;;;;;;;4.22;1.25;;;;;;;26.78;21.51;100309.59;5030902;28;20422;-62
2022/04/25 09:45:10;;;;;;;4.30;1.07;;;;;;;26.85;20.91;100303.81;5030659;28;20418;-62
2022/04/25 09:47:38;;;;;;;4.28;1.10;;;;;;;26.82;21.08;100302.47;5030503;28;20606;-62
2022/04/25 09:50:08;;;;;;;4.78;1.17;;;;;;;27.00;20.93;100300.91;5030422;28;20445;-62
2022/04/25 09:52:36;;;;;;;5.43;1.08;;;;;;;26.87;20.26;100299.72;5030385;28;20450;-62
2022/04/25 09:55:16;;;;;;;4.07;1.00;;;;;;;26.93;19.77;100295.00;5030768;28;20414;-63
2022/04/25 09:57:45;;;;;;;4.70;1.20;;;;;;;26.99;19.76;100285.72;5030592;28;20446;-62
2022/04/25 10:00:13;;;;;;;5.93;1.50;;;;;;;27.05;20.26;100295.41;5030387;28;20419;-63
2022/04/25 10:02:41;;;;;;;7.72;1.80;;;;;;;26.98;20.76;100297.69;5030596;28;20418;-62
2022/04/25 10:05:15;;;;;;;5.85;1.55;;;;;;;27.04;20.91;100295.72;5030217;28;20441;-62
2022/04/25 10:07:43;;;;;;;5.85;1.38;;;;;;;27.08;20.75;100296.75;5030106;28;20809;-62
2022/04/25 10:10:11;;;;;;;4.22;1.17;;;;;;;27.15;20.95;100288.22;5030156;28;20414;-62
2022/04/25 10:12:40;;;;;;;4.60;1.15;;;;;;;26.77;20.92;100285.41;5030254;28;20414;-62
2022/04/25 10:15:08;;;;;;;5.90;1.42;;;;;;;27.00;21.28;100303.63;5030055;28;20890;-62
2022/04/25 10:17:38;;;;;;;4.78;1.30;;;;;;;27.13;20.50;100307.56;5030070;28;20420;-62
2022/04/25 10:20:07;;;;;;;6.60;1.23;;;;;;;27.08;20.77;100285.84;5030302;28;20422;-62
2022/04/25 10:22:35;;;;;;;4.60;1.35;;;;;;;27.04;20.57;100291.06;5030275;28;20509;-62
2022/04/25 10:25:03;;;;;;;5.97;1.40;;;;;;;26.83;20.88;100290.50;5030155;28;20419;-63
2022/04/25 10:27:34;;;;;;;6.43;1.80;;;;;;;26.94;20.31;100302.09;5029860;28;20479;-62
2022/04/25 10:30:10;;;;;;;6.53;1.70;;;;;;;26.97;20.38;100296.03;5030160;28;20950;-62
2022/04/25 10:32:37;;;;;;;6.05;1.50;;;;;;;26.98;20.38;100294.16;5030111;28;20480;-62
2022/04/25 10:35:11;;;;;;;3.95;0.90;;;;;;;27.12;19.94;100300.53;5030042;28;20455;-63
2022/04/25 10:37:41;;;;;;;4.93;1.10;;;;;;;27.09;20.51;100298.38;5029654;28;20446;-63
2022/04/25 10:40:09;;;;;;;5.18;1.17;;;;;;;27.15;19.82;100290.94;5029486;28;20414;-62
2022/04/25 10:45:56;;;;;;;3.80;0.90;;;;;;;27.40;19.66;100303.44;4949445;29;20496;-62
2022/04/25 10:48:23;;;;;;;5.50;1.40;;;;;;;27.35;19.46;100304.34;5014244;28;20445;-63
2022/04/25 10:51:09;;;;;;;6.82;1.70;;;;;;;27.35;19.50;100307.06;5029776;28;20416;-62
2022/04/25 10:54:06;;;;;;;4.57;1.52;;;;;;;27.37;19.65;100299.41;5029485;28;20422;-62
2022/04/25 10:56:35;;;;;;;3.35;1.08;;;;;;;27.27;19.46;100297.63;4987984;28;20417;-62
2022/04/25 10:59:24;;;;;;;2.80;1.00;;;;;;;27.43;19.61;100302.88;5020569;28;20424;-62
2022/04/25 11:01:54;;;;;;;3.92;1.05;;;;;;;27.32;19.51;100307.63;5029583;28;20437;-62
2022/04/25 11:04:22;;;;;;;5.40;0.90;;;;;;;27.02;19.20;100309.59;5029663;28;20420;-62
2022/04/25 11:06:49;;;;;;;4.05;1.02;;;;;;;27.21;19.21;100306.94;5029759;28;20434;-62
2022/04/25 11:09:39;;;;;;;3.35;0.70;;;;;;;27.41;19.02;100302.34;5029349;28;20492;-63
2022/04/25 11:12:07;;;;;;;3.80;1.00;;;;;;;27.21;19.07;100314.28;5029279;28;20417;-62
2022/04/25 11:14:34;;;;;;;3.85;1.00;;;;;;;26.93;19.46;100324.94;5029656;28;20425;-62
2022/04/25 11:17:12;;;;;;;3.72;0.77;;;;;;;27.21;19.37;100325.97;5029263;28;20868;-63
2022/04/25 11:19:48;;;;;;;2.90;0.85;;;;;;;27.07;20.03;100334.03;5029560;28;20442;-62
2022/04/25 11:22:54;;;;;;;3.70;1.00;;;;;;;27.26;20.58;100331.41;5029235;28;20414;-62
2022/04/25 11:25:41;;;;;;;2.63;1.00;;;;;;;26.99;21.45;100334.69;5029164;28;20429;-62
2022/04/25 11:28:13;;;;;;;3.53;0.70;;;;;;;26.75;21.75;100331.94;5029031;28;20430;-63
2022/04/25 11:30:41;;;;;;;3.65;0.80;;;;;;;26.66;21.88;100317.34;5029073;28;20421;-62
2022/04/25 11:33:12;;;;;;;3.28;0.85;;;;;;;26.77;21.52;100323.47;5029134;28;21025;-62
2022/04/25 11:35:41;;;;;;;3.22;0.68;;;;;;;26.92;21.32;100320.63;5029385;28;20480;-62
2022/04/25 11:38:08;;;;;;;3.35;0.80;;;;;;;27.01;22.00;100331.66;5029389;28;20511;-63
2022/04/25 11:40:35;;;;;;;2.20;0.80;;;;;;;26.96;21.73;100326.28;5029318;28;20414;-62
2022/04/25 11:43:04;;;;;;;3.88;1.00;;;;;;;26.75;22.21;100323.78;5029244;28;20920;-62
2022/04/25 11:45:31;;;;;;;2.72;0.77;;;;;;;26.61;20.95;100330.97;5029010;28;21109;-62
2022/04/25 11:48:00;;;;;;;2.22;0.80;;;;;;;26.35;21.15;100324.94;5028775;28;20974;-62
2022/04/25 11:50:28;;;;;;;4.60;0.85;;;;;;;26.53;20.57;100324.22;5028930;28;20450;-62
2022/04/25 11:52:56;;;;;;;3.05;0.90;;;;;;;26.53;21.03;100326.94;5030609;28;20903;-64
2022/04/25 11:55:33;;;;;;;2.30;0.80;;;;;;;26.42;20.46;100318.09;5032673;28;20514;-63
2022/04/25 11:58:01;;;;;;;4.55;1.08;;;;;;;26.38;20.52;100319.75;5032869;28;20418;-63
2022/04/25 12:00:28;;;;;;;1.60;0.80;;;;;;;26.53;19.96;100316.09;5032907;28;20421;-62
2022/04/25 12:02:55;;;;;;;4.28;0.80;;;;;;;26.34;20.04;100313.25;5032600;28;20760;-63
2022/04/25 12:05:31;;;;;;;2.25;0.80;;;;;;;26.59;19.89;100308.69;5032792;28;20779;-62
2022/04/25 12:16:14;;;;;;;4.00;1.00;;;;;;;26.63;21.96;100316.03;5032448;28;20453;-62
2022/04/25 12:18:50;;;;;;;1.80;0.70;;;;;;;27.00;21.23;100311.81;5032224;28;20501;-64
2022/04/25 12:21:19;;;;;;;2.17;0.73;;;;;;;26.91;21.86;100312.75;5032213;28;20426;-61
2022/04/25 12:23:51;;;;;;;1.90;0.70;;;;;;;26.96;21.13;100316.22;5032241;28;20508;-62